Grandes-Piles, Canada
Current Conditions -  °F | °C
As of 3:03 PM on Sunday 21 Dec 2014 (Local Time) from CYRQ Reporting Station
Light Snow Light Snow  
Wind Chill:   Ceiling: 1400
Heat Index: 18°   Visibility: 7mi
Dew Point: 12°   Wind: 6mph
Humidity: 79%   Direction: 80°E
Pressure: 30.38"   Gusts: NA
Location:  46.68°N, 72.72°W
Report Text: CYRQ 212003Z AUTO 08005KT 7SM -SN OVC014 M08/M11 A3038 RMK SLP292
Loading
Personal Weather Stations






























Interactive Weather Map New forecast layout! Learn more

10-Day Weather Forecast

Advertisements
Track Severe Weather on mobile